createdAt,value
2023-05-12T00:00:06.141Z,3.70
2023-05-12T00:02:38.361Z,2.10
2023-05-12T00:05:06.302Z,2.83
2023-05-12T00:07:32.813Z,1.63
2023-05-12T00:09:59.352Z,2.67
2023-05-12T00:12:26.111Z,1.67
2023-05-12T00:14:52.675Z,1.40
2023-05-12T00:17:19.306Z,2.53
2023-05-12T00:19:45.860Z,1.30
2023-05-12T00:22:12.830Z,2.13
2023-05-12T00:24:39.854Z,1.55
2023-05-12T00:27:07.414Z,1.55
2023-05-12T00:29:34.476Z,2.03
2023-05-12T00:32:01.197Z,2.45
2023-05-12T00:34:28.431Z,2.92
2023-05-12T00:36:55.210Z,2.97
2023-05-12T00:39:21.849Z,2.53
2023-05-12T00:41:50.042Z,2.40
2023-05-12T00:44:18.406Z,1.98
2023-05-12T00:46:45.085Z,2.33
2023-05-12T00:49:12.189Z,1.85
2023-05-12T00:51:39.685Z,5.63
2023-05-12T00:54:06.260Z,2.40
2023-05-12T00:56:39.183Z,2.05
2023-05-12T00:59:08.112Z,2.58
2023-05-12T01:01:38.362Z,1.60
2023-05-12T01:04:07.589Z,1.25
2023-05-12T01:06:48.626Z,2.70
2023-05-12T01:09:16.343Z,1.63
2023-05-12T01:11:44.000Z,1.92
2023-05-12T01:14:11.121Z,1.95
2023-05-12T01:16:52.863Z,2.05
2023-05-12T01:22:10.152Z,3.05
2023-05-12T01:24:48.087Z,3.63
2023-05-12T01:27:16.376Z,1.50
2023-05-12T01:29:46.631Z,2.10
2023-05-12T01:32:15.324Z,2.28
2023-05-12T01:34:44.235Z,3.33
2023-05-12T01:37:12.625Z,2.50
2023-05-12T01:39:40.097Z,2.15
2023-05-12T01:42:08.598Z,2.83
2023-05-12T01:44:35.163Z,3.55
2023-05-12T01:47:02.029Z,4.60
2023-05-12T01:49:30.597Z,5.05
2023-05-12T01:51:57.518Z,5.25
2023-05-12T01:54:29.413Z,4.38
2023-05-12T01:56:56.141Z,3.90
2023-05-12T01:59:22.770Z,2.35
2023-05-12T02:01:49.467Z,6.63
2023-05-12T02:04:22.222Z,2.30
2023-05-12T02:06:49.601Z,2.00
2023-05-12T02:09:16.124Z,3.08
2023-05-12T02:11:42.774Z,2.67
2023-05-12T02:14:09.292Z,3.75
2023-05-12T02:16:36.735Z,2.55
2023-05-12T02:19:04.236Z,3.60
2023-05-12T02:21:32.858Z,4.85
2023-05-12T02:23:59.741Z,3.25
2023-05-12T02:26:26.412Z,2.50
2023-05-12T02:28:53.588Z,5.57
2023-05-12T02:31:20.845Z,1.55
2023-05-12T02:33:47.515Z,2.97
2023-05-12T02:36:14.294Z,3.22
2023-05-12T02:38:41.177Z,4.88
2023-05-12T02:41:08.003Z,4.30
2023-05-12T02:43:34.606Z,6.00
2023-05-12T02:46:01.375Z,11.90
2023-05-12T02:48:28.073Z,17.08
2023-05-12T02:50:54.619Z,11.90
2023-05-12T02:53:21.454Z,16.40
2023-05-12T02:55:48.183Z,16.67
2023-05-12T02:58:14.825Z,13.35
2023-05-12T03:00:41.378Z,9.98
2023-05-12T03:03:08.207Z,11.77
2023-05-12T03:05:34.873Z,6.97
2023-05-12T03:08:02.160Z,6.53
2023-05-12T03:10:28.818Z,8.95
2023-05-12T03:12:55.389Z,5.07
2023-05-12T03:15:21.957Z,6.80
2023-05-12T03:17:48.653Z,7.25
2023-05-12T03:20:15.234Z,7.63
2023-05-12T03:22:43.187Z,4.90
2023-05-12T03:25:10.786Z,5.90
2023-05-12T03:27:37.706Z,5.72
2023-05-12T03:30:05.632Z,5.40
2023-05-12T03:32:35.534Z,6.07
2023-05-12T03:35:02.131Z,3.88
2023-05-12T03:37:28.747Z,7.15
2023-05-12T03:39:56.208Z,5.43
2023-05-12T03:42:25.970Z,5.00
2023-05-12T03:44:52.533Z,4.07
2023-05-12T03:47:21.678Z,5.30
2023-05-12T03:49:48.485Z,4.47
2023-05-12T03:52:15.052Z,4.60
2023-05-12T03:54:44.701Z,6.82
2023-05-12T03:57:12.424Z,5.57
2023-05-12T03:59:38.947Z,4.60
2023-05-12T04:02:07.719Z,5.43
2023-05-12T04:04:35.762Z,8.73
2023-05-12T04:07:02.290Z,5.10
2023-05-12T04:09:31.739Z,6.65
2023-05-12T04:11:58.833Z,6.38
2023-05-12T04:14:35.202Z,7.13
2023-05-12T04:17:08.509Z,8.65
2023-05-12T04:19:35.100Z,6.00
2023-05-12T04:22:01.696Z,5.97
2023-05-12T04:24:31.137Z,7.10
2023-05-12T04:26:57.890Z,5.75
2023-05-12T04:29:24.800Z,4.38
2023-05-12T04:31:51.426Z,6.35
2023-05-12T04:34:20.367Z,6.85
2023-05-12T04:36:47.104Z,5.75
2023-05-12T04:39:14.387Z,6.68
2023-05-12T04:41:40.972Z,10.18
2023-05-12T04:44:07.916Z,8.75
2023-05-12T04:46:34.622Z,4.22
2023-05-12T04:49:01.382Z,5.35
2023-05-12T04:51:27.950Z,6.78
2023-05-12T04:53:54.532Z,8.70
2023-05-12T04:56:22.248Z,4.60
2023-05-12T04:58:49.027Z,6.85
2023-05-12T05:01:16.087Z,7.57
2023-05-12T05:03:43.294Z,6.50
2023-05-12T05:06:10.192Z,6.57
2023-05-12T05:08:36.895Z,7.50
2023-05-12T05:11:03.675Z,6.18
2023-05-12T05:13:31.314Z,6.78
2023-05-12T05:15:58.180Z,8.35
2023-05-12T05:18:25.625Z,8.65
2023-05-12T05:23:22.748Z,7.32
2023-05-12T05:25:49.717Z,5.70
2023-05-12T05:28:17.110Z,6.13
2023-05-12T05:30:43.903Z,6.75
2023-05-12T05:33:14.987Z,7.00
2023-05-12T05:35:42.473Z,6.63
2023-05-12T05:38:10.286Z,6.53
2023-05-12T05:40:51.515Z,6.20
2023-05-12T05:43:20.161Z,6.05
2023-05-12T05:45:49.274Z,7.97
2023-05-12T05:48:15.876Z,6.53
2023-05-12T05:50:42.611Z,6.95
2023-05-12T05:53:09.497Z,7.20
2023-05-12T05:55:37.683Z,5.88
2023-05-12T05:58:04.405Z,6.82
2023-05-12T06:00:31.522Z,7.72
2023-05-12T06:02:58.260Z,7.03
2023-05-12T06:05:24.904Z,8.25
2023-05-12T06:07:51.449Z,5.60
2023-05-12T06:10:18.160Z,6.57
2023-05-12T06:12:44.932Z,6.55
2023-05-12T06:15:11.706Z,6.68
2023-05-12T06:17:39.169Z,7.72
2023-05-12T06:20:06.644Z,5.90
2023-05-12T06:22:34.675Z,7.53
2023-05-12T06:25:02.621Z,5.63
2023-05-12T06:27:29.503Z,6.93
2023-05-12T06:29:56.026Z,8.10
2023-05-12T06:32:22.579Z,7.15
2023-05-12T06:34:49.175Z,9.43
2023-05-12T06:37:15.940Z,7.90
2023-05-12T06:39:42.501Z,6.20
2023-05-12T06:42:09.208Z,8.45
2023-05-12T06:44:42.581Z,9.05
2023-05-12T06:47:09.516Z,8.45
2023-05-12T06:49:37.161Z,7.90
2023-05-12T06:52:05.634Z,7.60
2023-05-12T06:54:33.777Z,7.47
2023-05-12T06:57:00.414Z,7.20
2023-05-12T06:59:26.993Z,6.40
2023-05-12T07:01:53.526Z,7.93
2023-05-12T07:04:20.111Z,6.47
2023-05-12T07:06:47.833Z,8.40
2023-05-12T07:09:14.560Z,8.60
2023-05-12T07:11:41.083Z,6.55
2023-05-12T07:14:07.607Z,5.40
2023-05-12T07:16:34.218Z,8.57
2023-05-12T07:19:00.857Z,7.70
2023-05-12T07:21:28.588Z,8.25
2023-05-12T07:23:55.164Z,5.88
2023-05-12T07:26:24.119Z,6.90
2023-05-12T07:28:50.711Z,5.45
2023-05-12T07:31:17.337Z,5.65
2023-05-12T07:33:43.946Z,6.35
2023-05-12T07:36:10.473Z,5.47
2023-05-12T07:38:37.114Z,7.05
2023-05-12T07:41:05.580Z,6.93
2023-05-12T07:43:34.370Z,4.85
2023-05-12T07:46:01.199Z,6.63
2023-05-12T07:48:27.826Z,4.75
2023-05-12T07:50:54.450Z,5.55
2023-05-12T07:53:21.212Z,6.68
2023-05-12T07:55:47.800Z,6.43
2023-05-12T07:58:14.323Z,4.50
2023-05-12T08:00:40.843Z,5.90
2023-05-12T08:03:07.751Z,4.80
2023-05-12T08:05:34.423Z,7.03
2023-05-12T08:08:01.098Z,5.13
2023-05-12T08:10:29.877Z,5.20
2023-05-12T08:12:56.597Z,5.35
2023-05-12T08:15:23.247Z,4.88
2023-05-12T08:17:49.853Z,6.10
2023-05-12T08:20:16.452Z,5.00
2023-05-12T08:22:44.033Z,4.93
2023-05-12T08:25:17.917Z,6.55
2023-05-12T08:27:46.609Z,5.05
2023-05-12T08:30:13.530Z,5.25
2023-05-12T08:32:40.386Z,5.43
2023-05-12T08:35:07.220Z,4.80
2023-05-12T08:37:34.792Z,5.63
2023-05-12T08:40:01.718Z,4.93
2023-05-12T08:42:40.482Z,5.38
2023-05-12T08:45:08.133Z,5.60
2023-05-12T08:47:35.256Z,5.13
2023-05-12T08:50:03.827Z,4.90
2023-05-12T08:52:33.253Z,6.55
2023-05-12T08:55:01.100Z,5.35
2023-05-12T09:30:56.323Z,4.90
2023-05-12T09:33:22.957Z,4.03
2023-05-12T09:35:49.476Z,3.85
2023-05-12T09:38:16.113Z,2.83
2023-05-12T09:40:43.466Z,4.32
2023-05-12T09:43:14.408Z,3.58
2023-05-12T09:45:43.881Z,3.33
2023-05-12T09:48:11.618Z,3.72
2023-05-12T09:50:50.399Z,3.33
2023-05-12T09:53:19.016Z,4.68
2023-05-12T09:55:47.412Z,2.40
2023-05-12T09:58:17.747Z,3.58
2023-05-12T10:01:12.911Z,2.83
2023-05-12T10:03:34.738Z,4.28
2023-05-12T10:06:03.821Z,2.88
2023-05-12T10:09:09.269Z,3.88
2023-05-12T10:11:36.363Z,2.95
2023-05-12T10:14:03.676Z,2.67
2023-05-12T10:16:31.069Z,2.47
2023-05-12T10:18:58.638Z,5.22
2023-05-12T10:21:26.133Z,2.60
2023-05-12T10:23:54.029Z,3.58
2023-05-12T10:26:21.493Z,4.47
2023-05-12T10:28:49.835Z,3.28
2023-05-12T10:31:16.982Z,2.33
2023-05-12T10:33:43.593Z,2.40
2023-05-12T10:36:18.220Z,3.55
2023-05-12T10:38:47.770Z,3.28
2023-05-12T10:41:14.283Z,3.17
2023-05-12T10:43:43.495Z,2.85
2023-05-12T10:46:13.962Z,3.28
2023-05-12T10:49:05.862Z,2.80
2023-05-12T10:51:48.754Z,3.72
2023-05-12T10:54:44.395Z,2.25
2023-05-12T10:57:18.635Z,3.20
2023-05-12T10:59:53.118Z,3.88
2023-05-12T11:02:26.196Z,2.85
2023-05-12T11:05:04.455Z,2.17
2023-05-12T11:07:34.693Z,2.55
2023-05-12T11:10:05.530Z,4.72
2023-05-12T11:12:36.486Z,3.03
2023-05-12T11:15:05.091Z,4.53
2023-05-12T11:17:32.186Z,3.35
2023-05-12T11:20:00.782Z,2.88
2023-05-12T11:22:27.481Z,2.85
2023-05-12T11:24:54.295Z,3.42
2023-05-12T11:27:23.156Z,4.18
2023-05-12T11:30:01.277Z,3.55
2023-05-12T11:32:29.637Z,2.88
2023-05-12T11:34:56.494Z,2.80
2023-05-12T11:37:23.243Z,3.45
2023-05-12T11:39:50.140Z,3.22
2023-05-12T11:42:19.773Z,6.03
2023-05-12T11:44:49.365Z,4.78
2023-05-12T11:47:17.142Z,3.80
2023-05-12T11:49:54.603Z,2.55
2023-05-12T11:52:23.052Z,3.30
2023-05-12T11:54:56.827Z,3.78
2023-05-12T11:57:35.074Z,2.63
2023-05-12T12:00:08.012Z,2.13
2023-05-12T12:02:37.438Z,2.95
2023-05-12T12:05:05.061Z,2.08
2023-05-12T12:07:37.519Z,2.53
2023-05-12T12:10:15.104Z,3.20
2023-05-12T12:12:42.530Z,2.40
2023-05-12T12:15:10.598Z,2.75
2023-05-12T12:17:37.500Z,2.85
2023-05-12T12:20:06.626Z,2.35
2023-05-12T12:22:34.487Z,2.83
2023-05-12T12:25:05.157Z,5.45
2023-05-12T12:27:32.336Z,2.97
2023-05-12T12:29:59.181Z,2.95
2023-05-12T12:32:27.253Z,2.80
2023-05-12T12:34:59.727Z,2.70
2023-05-12T12:37:26.975Z,2.05
2023-05-12T12:39:55.091Z,3.35
2023-05-12T12:42:22.419Z,7.07
2023-05-12T12:44:50.506Z,2.47
2023-05-12T12:47:18.355Z,3.97
2023-05-12T12:49:46.505Z,2.80
2023-05-12T12:52:13.411Z,2.28
2023-05-12T12:54:40.469Z,3.13
2023-05-12T12:57:07.524Z,3.25
2023-05-12T12:59:34.422Z,2.83
2023-05-12T13:02:02.682Z,4.15
2023-05-12T13:04:29.895Z,4.50
2023-05-12T13:06:56.728Z,3.67
2023-05-12T13:09:23.514Z,5.25
2023-05-12T13:11:50.473Z,4.97
2023-05-12T13:14:21.307Z,4.47
2023-05-12T13:16:48.347Z,3.35
2023-05-12T13:19:17.455Z,5.68
2023-05-12T13:21:44.340Z,3.50
2023-05-12T13:24:11.100Z,3.28
2023-05-12T13:26:43.062Z,4.63
2023-05-12T13:29:10.019Z,3.45
2023-05-12T13:31:38.967Z,3.08
2023-05-12T13:34:06.083Z,3.08
2023-05-12T13:36:34.808Z,3.47
2023-05-12T13:39:03.346Z,3.10
2023-05-12T13:41:30.481Z,2.45
2023-05-12T13:43:57.459Z,4.75
2023-05-12T13:46:26.812Z,2.95
2023-05-12T13:48:55.351Z,3.88
2023-05-12T13:51:27.139Z,3.42
2023-05-12T13:53:54.064Z,2.60
2023-05-12T13:56:21.981Z,2.83
2023-05-12T13:58:51.256Z,3.67
2023-05-12T14:01:18.289Z,2.45
2023-05-12T14:03:45.648Z,3.67
2023-05-12T14:06:12.825Z,3.80
2023-05-12T14:08:42.075Z,3.25
2023-05-12T14:11:11.580Z,2.90
2023-05-12T14:13:39.969Z,3.28
2023-05-12T14:16:07.304Z,3.15
2023-05-12T14:18:34.737Z,2.88
2023-05-12T14:21:01.996Z,2.25
2023-05-12T14:23:28.840Z,2.95
2023-05-12T14:25:55.960Z,2.10
2023-05-12T14:28:23.433Z,2.00
2023-05-12T14:30:50.841Z,3.30
2023-05-12T14:33:17.846Z,1.90
2023-05-12T14:35:52.927Z,3.35
2023-05-12T14:38:29.118Z,2.38
2023-05-12T14:40:55.905Z,1.50
2023-05-12T14:43:22.964Z,1.60
2023-05-12T14:45:54.705Z,1.85
2023-05-12T14:48:23.580Z,1.65
2023-05-12T14:50:57.927Z,1.70
2023-05-12T14:53:24.827Z,1.77
2023-05-12T14:55:53.304Z,2.30
2023-05-12T14:58:22.048Z,1.40
2023-05-12T15:00:50.910Z,1.58
2023-05-12T15:03:19.580Z,1.50
2023-05-12T15:06:05.079Z,2.65
2023-05-12T15:08:33.271Z,1.05
2023-05-12T15:11:00.061Z,2.08
2023-05-12T15:13:27.113Z,2.08
2023-05-12T15:15:56.510Z,1.90
2023-05-12T15:18:24.651Z,1.58
2023-05-12T15:20:52.069Z,1.90
2023-05-12T15:23:19.161Z,3.08
2023-05-12T15:25:46.022Z,2.22
2023-05-12T15:28:12.917Z,1.73
2023-05-12T15:30:39.870Z,2.60
2023-05-12T15:33:07.087Z,1.05
2023-05-12T15:35:34.441Z,1.50
2023-05-12T15:38:01.959Z,1.52
2023-05-12T15:40:31.977Z,1.70
2023-05-12T15:42:58.547Z,3.13
2023-05-12T15:45:25.744Z,1.13
2023-05-12T15:47:53.864Z,1.27
2023-05-12T15:50:23.209Z,2.08
2023-05-12T15:52:50.904Z,0.82
2023-05-12T15:55:19.437Z,1.75
2023-05-12T15:57:46.897Z,3.60
2023-05-12T16:00:15.263Z,1.60
2023-05-12T16:02:42.698Z,1.52
2023-05-12T16:05:10.042Z,1.38
2023-05-12T16:07:37.200Z,0.93
2023-05-12T16:10:04.912Z,2.30
2023-05-12T16:12:33.971Z,1.63
2023-05-12T16:15:00.980Z,1.30
2023-05-12T16:17:27.911Z,1.90
2023-05-12T16:19:59.323Z,1.40
2023-05-12T16:22:26.506Z,0.73
2023-05-12T16:24:54.607Z,1.80
2023-05-12T16:27:23.063Z,1.48
2023-05-12T16:29:53.401Z,0.65
2023-05-12T16:32:20.614Z,9.23
2023-05-12T16:34:47.302Z,2.80
2023-05-12T16:37:13.916Z,1.23
2023-05-12T16:39:40.430Z,0.80
2023-05-12T16:42:08.038Z,0.80
2023-05-12T16:44:34.680Z,2.83
2023-05-12T16:47:03.531Z,6.75
2023-05-12T16:49:30.097Z,2.13
2023-05-12T16:51:56.676Z,0.77
2023-05-12T16:54:23.566Z,1.20
2023-05-12T16:56:50.213Z,1.52
2023-05-12T16:59:16.750Z,3.85
2023-05-12T17:01:43.419Z,0.90
2023-05-12T17:04:12.404Z,1.35
2023-05-12T17:06:38.992Z,2.35
2023-05-12T17:09:05.703Z,0.70
2023-05-12T17:11:32.247Z,0.65
2023-05-12T17:13:58.905Z,0.90
2023-05-12T17:16:25.599Z,0.80
2023-05-12T17:21:21.658Z,1.70
2023-05-12T17:23:48.610Z,0.50
2023-05-12T17:26:15.151Z,0.90
2023-05-12T17:28:42.285Z,0.60
2023-05-12T17:31:10.489Z,1.90
2023-05-12T17:33:37.128Z,2.38
2023-05-12T17:36:11.666Z,0.43
2023-05-12T17:38:40.303Z,1.05
2023-05-12T17:41:06.893Z,2.70
2023-05-12T17:43:36.011Z,1.52
2023-05-12T17:46:04.162Z,0.80
2023-05-12T17:48:33.874Z,1.02
2023-05-12T17:51:01.473Z,1.00
2023-05-12T17:53:31.630Z,0.50
2023-05-12T17:55:59.283Z,1.45
2023-05-12T17:58:25.965Z,2.33
2023-05-12T18:00:52.681Z,1.42
2023-05-12T18:03:23.519Z,1.58
2023-05-12T18:05:51.337Z,2.47
2023-05-12T18:08:18.148Z,1.30
2023-05-12T18:10:45.529Z,1.85
2023-05-12T18:13:14.629Z,1.83
2023-05-12T18:15:42.201Z,1.50
2023-05-12T18:18:10.048Z,2.15
2023-05-12T18:20:37.051Z,1.73
2023-05-12T18:23:03.609Z,3.35
2023-05-12T18:25:30.142Z,1.65
2023-05-12T18:27:56.760Z,3.25
2023-05-12T18:30:23.303Z,2.70
2023-05-12T18:32:50.379Z,2.45
2023-05-12T18:35:16.995Z,4.57
2023-05-12T18:37:43.856Z,2.65
2023-05-12T18:40:11.154Z,4.10
2023-05-12T18:42:38.317Z,2.22
2023-05-12T18:45:05.497Z,2.85
2023-05-12T18:47:34.688Z,5.13
2023-05-12T18:50:01.535Z,3.05
2023-05-12T18:52:28.068Z,7.35
2023-05-12T18:54:54.626Z,4.82
2023-05-12T18:57:21.612Z,4.38
2023-05-12T18:59:48.213Z,5.72
2023-05-12T19:02:14.732Z,4.07
2023-05-12T19:04:41.383Z,4.80
2023-05-12T19:07:09.813Z,2.88
2023-05-12T19:09:37.059Z,3.28
2023-05-12T19:12:05.879Z,3.15
2023-05-12T19:14:32.631Z,4.30
2023-05-12T19:16:59.152Z,5.85
2023-05-12T19:19:25.705Z,4.32
2023-05-12T19:21:52.583Z,5.05
2023-05-12T19:24:19.481Z,5.05
2023-05-12T19:26:46.266Z,5.32
2023-05-12T19:29:12.798Z,4.43
2023-05-12T19:31:39.472Z,5.15
2023-05-12T19:34:06.237Z,4.95
2023-05-12T19:36:32.907Z,5.40
2023-05-12T19:39:00.399Z,6.40
2023-05-12T19:41:27.954Z,5.60
2023-05-12T19:43:55.969Z,6.80
2023-05-12T19:46:22.804Z,5.43
2023-05-12T19:48:50.996Z,3.90
2023-05-12T19:51:17.702Z,6.35
2023-05-12T19:53:44.539Z,6.30
2023-05-12T19:56:11.205Z,5.80
2023-05-12T19:58:38.395Z,6.70
2023-05-12T20:01:05.216Z,5.22
2023-05-12T20:03:31.884Z,6.20
2023-05-12T20:05:58.872Z,8.93
2023-05-12T20:08:25.669Z,6.20
2023-05-12T20:10:52.221Z,6.85
2023-05-12T20:13:18.862Z,8.43
2023-05-12T20:15:45.433Z,6.70
2023-05-12T20:18:14.641Z,6.07
2023-05-12T20:20:43.002Z,6.05
2023-05-12T20:23:09.822Z,7.88
2023-05-12T20:25:36.658Z,6.05
2023-05-12T20:28:03.275Z,7.38
2023-05-12T20:30:32.142Z,6.97
2023-05-12T20:32:58.720Z,5.30
2023-05-12T20:35:25.631Z,7.55
2023-05-12T20:37:52.445Z,7.20
2023-05-12T20:40:19.709Z,5.18
2023-05-12T20:42:46.928Z,7.57
2023-05-12T20:45:14.221Z,7.63
2023-05-12T20:47:40.813Z,6.00
2023-05-12T20:50:08.710Z,6.10
2023-05-12T20:52:40.267Z,5.97
2023-05-12T20:55:07.638Z,8.25
2023-05-12T20:57:34.197Z,7.78
2023-05-12T21:00:00.766Z,6.53
2023-05-12T21:02:28.622Z,5.55
2023-05-12T21:04:55.719Z,8.10
2023-05-12T21:07:22.284Z,6.30
2023-05-12T21:09:48.837Z,6.78
2023-05-12T21:12:15.506Z,6.65
2023-05-12T21:14:43.695Z,6.60
2023-05-12T21:17:11.054Z,8.40
2023-05-12T21:19:38.787Z,8.23
2023-05-12T21:22:06.753Z,8.00
2023-05-12T21:24:33.663Z,7.57
2023-05-12T21:27:04.722Z,7.03
2023-05-12T21:29:32.373Z,7.85
2023-05-12T21:31:59.373Z,8.75
2023-05-12T21:34:26.507Z,7.63
2023-05-12T21:36:53.034Z,8.68
2023-05-12T21:39:19.568Z,6.72
2023-05-12T21:41:46.207Z,6.30
2023-05-12T21:44:12.759Z,7.22
2023-05-12T21:46:39.566Z,7.18
2023-05-12T21:49:06.274Z,8.57
2023-05-12T21:51:33.182Z,6.80
2023-05-12T21:54:00.156Z,5.90
2023-05-12T21:56:26.821Z,8.63
2023-05-12T21:58:53.500Z,7.03
2023-05-12T22:01:20.256Z,7.80
2023-05-12T22:03:46.940Z,9.95
2023-05-12T22:06:13.556Z,6.97
2023-05-12T22:08:40.161Z,8.73
2023-05-12T22:11:06.769Z,8.68
2023-05-12T22:13:33.354Z,7.60
2023-05-12T22:16:02.924Z,6.65
2023-05-12T22:18:29.788Z,6.72
2023-05-12T22:20:56.320Z,9.50
2023-05-12T22:23:23.220Z,7.07
2023-05-12T22:25:51.181Z,7.55
2023-05-12T22:28:18.037Z,6.15
2023-05-12T22:30:44.616Z,7.75
2023-05-12T22:33:11.298Z,6.63
2023-05-12T22:35:37.931Z,7.05
2023-05-12T22:38:04.561Z,7.43
2023-05-12T22:40:31.278Z,6.85
2023-05-12T22:42:57.852Z,8.00
2023-05-12T22:45:27.494Z,6.20
2023-05-12T22:47:54.177Z,6.25
2023-05-12T22:50:21.436Z,7.13
2023-05-12T22:52:48.230Z,5.97
2023-05-12T22:55:14.792Z,6.95
2023-05-12T22:57:43.627Z,6.63
2023-05-12T23:00:10.564Z,7.45
2023-05-12T23:02:37.172Z,7.10
2023-05-12T23:05:04.219Z,6.18
2023-05-12T23:07:31.135Z,5.43
2023-05-12T23:09:57.821Z,6.63
2023-05-12T23:12:24.324Z,6.18
2023-05-12T23:14:50.955Z,6.00
2023-05-12T23:17:17.487Z,5.47
2023-05-12T23:19:44.026Z,7.50
2023-05-12T23:22:10.537Z,7.93
2023-05-12T23:24:37.161Z,5.63
2023-05-12T23:27:04.371Z,6.57
2023-05-12T23:29:31.008Z,5.90
2023-05-12T23:31:58.699Z,5.10
2023-05-12T23:34:25.595Z,5.85
2023-05-12T23:36:52.396Z,4.70
2023-05-12T23:39:18.956Z,5.10
2023-05-12T23:41:45.644Z,4.43
2023-05-12T23:44:12.462Z,4.93
2023-05-12T23:46:39.154Z,5.45
2023-05-12T23:49:06.248Z,4.55
2023-05-12T23:51:33.089Z,4.85
2023-05-12T23:54:01.906Z,7.00
2023-05-12T23:56:28.423Z,4.15
2023-05-12T23:58:55.287Z,4.38
